Time;durP1;ratioP1;P1;durP2;ratioP2;P2;SDS_P1;SDS_P2;PMS_P1;PMS_P2;Temp;Humidity;BMP_temperature;BMP_pressure;BME280_temperature;BME280_humidity;BME280_pressure;Samples;Min_cycle;Max_cycle;Signal;HPM_P1;HPM_P2
2024/04/13 00:00:17;;;;;;;1.48;1.35;;;;;;;;;;5675373;25;20224;-50
2024/04/13 00:02:49;;;;;;;1.40;1.30;;;;;;;;;;5674736;25;20326;-51
2024/04/13 00:05:16;;;;;;;1.30;1.20;;;;;;;;;;5675022;25;20215;-51
2024/04/13 00:07:45;;;;;;;1.30;1.27;;;;;;;;;;5659089;25;20262;-50
2024/04/13 00:10:12;;;;;;;0.90;0.90;;;;;;;;;;5653431;25;20217;-53
2024/04/13 00:12:41;;;;;;;0.90;0.90;;;;;;;;;;5652714;25;20819;-49
2024/04/13 00:15:09;;;;;;;0.88;0.88;;;;;;;;;;5644172;25;20281;-51
2024/04/13 00:17:38;;;;;;;1.00;1.00;;;;;;;;;;5674766;25;20284;-51
2024/04/13 00:20:08;;;;;;;3.20;1.10;;;;;;;;;;5674832;25;20208;-50
2024/04/13 00:22:37;;;;;;;1.17;1.08;;;;;;;;;;5674372;25;20228;-51
2024/04/13 00:25:04;;;;;;;1.20;1.10;;;;;;;;;;5658687;25;20351;-50
2024/04/13 00:27:34;;;;;;;1.52;1.42;;;;;;;;;;5674640;25;20224;-50
2024/04/13 00:30:00;;;;;;;2.30;1.48;;;;;;;;;;5668698;25;20264;-50
2024/04/13 00:32:29;;;;;;;1.00;1.00;;;;;;;;;;5664367;25;20224;-52
2024/04/13 00:34:56;;;;;;;1.67;1.38;;;;;;;;;;5674069;25;20216;-50
2024/04/13 00:37:28;;;;;;;1.23;1.23;;;;;;;;;;5674276;25;20360;-52
2024/04/13 00:39:55;;;;;;;1.50;1.40;;;;;;;;;;5677283;25;20223;-49
2024/04/13 00:42:24;;;;;;;2.05;1.45;;;;;;;;;;5678080;25;20719;-50
2024/04/13 00:45:01;;;;;;;1.85;1.23;;;;;;;;;;5678189;25;20331;-50
2024/04/13 00:47:30;;;;;;;1.40;1.17;;;;;;;;;;5678383;25;20231;-48
2024/04/13 00:49:57;;;;;;;3.53;1.45;;;;;;;;;;5678276;25;20220;-50
2024/04/13 00:52:29;;;;;;;1.52;1.20;;;;;;;;;;5677939;25;20627;-51
2024/04/13 00:54:55;;;;;;;1.92;1.50;;;;;;;;;;5657673;25;20224;-49
2024/04/13 00:57:24;;;;;;;1.67;1.48;;;;;;;;;;5667185;25;20280;-50
2024/04/13 00:59:51;;;;;;;1.85;1.75;;;;;;;;;;5678131;25;20278;-54
2024/04/13 01:02:22;;;;;;;1.42;1.10;;;;;;;;;;5677832;25;20723;-47
2024/04/13 01:04:48;;;;;;;1.38;1.02;;;;;;;;;;5678127;25;20284;-51
2024/04/13 01:07:19;;;;;;;1.20;1.20;;;;;;;;;;5652423;25;20217;-50
2024/04/13 01:09:48;;;;;;;1.10;1.00;;;;;;;;;;5644029;25;20651;-51
2024/04/13 01:12:18;;;;;;;1.65;1.55;;;;;;;;;;5677866;25;20228;-52
2024/04/13 01:14:44;;;;;;;1.60;1.50;;;;;;;;;;5677755;25;20258;-54
2024/04/13 01:17:15;;;;;;;1.38;1.20;;;;;;;;;;5669178;25;20229;-52
2024/04/13 01:19:41;;;;;;;1.00;1.00;;;;;;;;;;5671301;25;20355;-53
2024/04/13 01:22:11;;;;;;;1.20;1.20;;;;;;;;;;5662569;25;20263;-50
2024/04/13 01:24:40;;;;;;;1.20;1.20;;;;;;;;;;5677613;25;20598;-51
2024/04/13 01:27:10;;;;;;;1.10;1.10;;;;;;;;;;5670357;25;20217;-50
2024/04/13 01:29:36;;;;;;;1.08;1.08;;;;;;;;;;5670634;25;20254;-50
2024/04/13 01:32:07;;;;;;;1.00;1.00;;;;;;;;;;5677151;25;20321;-50
2024/04/13 01:34:34;;;;;;;1.10;1.10;;;;;;;;;;5677481;25;20578;-49
2024/04/13 01:37:03;;;;;;;1.05;1.05;;;;;;;;;;5677378;25;20326;-51
2024/04/13 01:39:29;;;;;;;0.90;0.90;;;;;;;;;;5677571;25;20220;-50
2024/04/13 01:42:01;;;;;;;2.13;1.33;;;;;;;;;;5676927;25;20621;-51
2024/04/13 01:44:27;;;;;;;1.70;1.60;;;;;;;;;;5677187;25;20220;-50
2024/04/13 01:46:58;;;;;;;1.10;1.10;;;;;;;;;;5673198;25;20220;-51
2024/04/13 01:49:25;;;;;;;2.00;1.60;;;;;;;;;;5667055;25;20220;-51
2024/04/13 01:51:54;;;;;;;1.50;1.40;;;;;;;;;;5659952;25;20224;-50
2024/04/13 01:54:20;;;;;;;1.92;1.38;;;;;;;;;;5677309;25;20224;-50
2024/04/13 01:56:49;;;;;;;1.20;1.20;;;;;;;;;;5661154;25;20224;-50
2024/04/13 01:59:19;;;;;;;1.20;1.20;;;;;;;;;;5661088;25;20268;-52
2024/04/13 02:01:49;;;;;;;1.52;1.35;;;;;;;;;;5676414;25;20258;-50
2024/04/13 02:04:15;;;;;;;1.77;1.52;;;;;;;;;;5676889;25;20220;-54
2024/04/13 02:06:44;;;;;;;1.52;1.42;;;;;;;;;;5660776;25;20220;-49
2024/04/13 02:09:13;;;;;;;1.83;1.73;;;;;;;;;;5663696;25;20564;-53
2024/04/13 02:11:42;;;;;;;1.42;1.33;;;;;;;;;;5676967;25;20702;-55
2024/04/13 02:14:11;;;;;;;2.25;1.40;;;;;;;;;;5661425;25;20216;-50
2024/04/13 02:16:42;;;;;;;1.52;1.42;;;;;;;;;;5676834;25;20224;-50
2024/04/13 02:19:09;;;;;;;1.20;1.10;;;;;;;;;;5677142;25;20227;-52
2024/04/13 02:21:38;;;;;;;1.38;1.27;;;;;;;;;;5676667;25;20220;-49
2024/04/13 02:24:05;;;;;;;2.42;1.50;;;;;;;;;;5676733;25;20216;-52
2024/04/13 02:26:34;;;;;;;2.08;1.90;;;;;;;;;;5677013;25;20236;-49
2024/04/13 02:29:01;;;;;;;1.50;1.40;;;;;;;;;;5676864;25;20251;-52
2024/04/13 02:31:30;;;;;;;3.28;1.92;;;;;;;;;;5676280;25;20223;-53
2024/04/13 02:33:59;;;;;;;1.60;1.50;;;;;;;;;;5676080;25;20766;-53
2024/04/13 02:36:29;;;;;;;1.38;1.27;;;;;;;;;;5676711;25;20637;-51
2024/04/13 02:38:55;;;;;;;2.17;1.30;;;;;;;;;;5662877;25;20256;-52
2024/04/13 02:41:24;;;;;;;1.73;1.63;;;;;;;;;;5676650;25;20280;-52
2024/04/13 02:43:52;;;;;;;1.58;1.48;;;;;;;;;;5676041;25;20269;-51
2024/04/13 02:46:23;;;;;;;1.20;1.10;;;;;;;;;;5676314;25;20341;-50
2024/04/13 02:48:49;;;;;;;1.50;1.40;;;;;;;;;;5676052;25;20325;-50
2024/04/13 02:51:21;;;;;;;1.73;1.63;;;;;;;;;;5676212;25;20640;-49
2024/04/13 02:53:48;;;;;;;9.48;2.42;;;;;;;;;;5675791;25;20258;-53
2024/04/13 02:56:17;;;;;;;1.58;1.40;;;;;;;;;;5676470;25;20326;-51
2024/04/13 02:58:43;;;;;;;2.65;1.88;;;;;;;;;;5676064;25;20216;-52
2024/04/13 03:01:12;;;;;;;1.92;1.80;;;;;;;;;;5674923;25;20219;-49
2024/04/13 03:03:39;;;;;;;1.40;1.30;;;;;;;;;;5674134;25;20271;-50
2024/04/13 03:06:11;;;;;;;1.58;1.48;;;;;;;;;;5676362;25;20789;-50
2024/04/13 03:08:41;;;;;;;2.47;1.70;;;;;;;;;;5663306;25;20267;-50
2024/04/13 03:11:11;;;;;;;2.45;1.90;;;;;;;;;;5652875;25;20248;-54
2024/04/13 03:13:38;;;;;;;2.78;1.90;;;;;;;;;;5675389;25;20251;-52
2024/04/13 03:16:09;;;;;;;2.33;1.50;;;;;;;;;;5675327;25;20579;-50
2024/04/13 03:18:38;;;;;;;1.83;1.60;;;;;;;;;;5675717;25;20226;-52
2024/04/13 03:21:08;;;;;;;1.98;1.88;;;;;;;;;;5675326;25;20698;-53
2024/04/13 03:23:39;;;;;;;1.70;1.60;;;;;;;;;;5675190;25;20334;-50
2024/04/13 03:26:08;;;;;;;1.55;1.45;;;;;;;;;;5675473;25;20279;-53
2024/04/13 03:28:35;;;;;;;1.70;1.60;;;;;;;;;;5675458;25;20262;-52
2024/04/13 03:31:05;;;;;;;1.83;1.73;;;;;;;;;;5674806;25;20231;-53
2024/04/13 03:33:32;;;;;;;2.67;2.47;;;;;;;;;;5675008;25;20223;-52
2024/04/13 03:36:04;;;;;;;1.80;1.70;;;;;;;;;;5675101;25;20287;-54
2024/04/13 03:38:33;;;;;;;2.20;2.00;;;;;;;;;;5675283;25;20714;-49
2024/04/13 03:41:06;;;;;;;1.23;1.20;;;;;;;;;;5673793;25;20227;-54
2024/04/13 03:43:36;;;;;;;1.65;1.55;;;;;;;;;;5675247;25;20223;-52
2024/04/13 03:46:03;;;;;;;1.85;1.75;;;;;;;;;;5674760;25;20969;-52
2024/04/13 03:48:32;;;;;;;1.55;1.45;;;;;;;;;;5674931;25;20220;-50
2024/04/13 03:51:01;;;;;;;2.30;1.70;;;;;;;;;;5674320;25;20250;-54
2024/04/13 03:53:30;;;;;;;2.47;2.25;;;;;;;;;;5674947;25;20224;-54
2024/04/13 03:55:56;;;;;;;2.85;2.40;;;;;;;;;;5674684;25;20228;-54
2024/04/13 03:58:28;;;;;;;1.70;1.60;;;;;;;;;;5674695;25;20216;-51
2024/04/13 04:00:55;;;;;;;1.60;1.50;;;;;;;;;;5674298;25;20263;-54
2024/04/13 04:03:25;;;;;;;1.83;1.67;;;;;;;;;;5674531;25;20232;-50
2024/04/13 04:05:52;;;;;;;1.60;1.50;;;;;;;;;;5674369;25;20722;-52
2024/04/13 04:08:21;;;;;;;2.05;1.95;;;;;;;;;;5674388;25;20277;-53
2024/04/13 04:10:48;;;;;;;3.08;2.78;;;;;;;;;;5673350;25;20277;-54
2024/04/13 04:13:17;;;;;;;1.63;1.52;;;;;;;;;;5674406;25;20275;-53
2024/04/13 04:15:47;;;;;;;1.70;1.50;;;;;;;;;;5678130;25;20266;-52
2024/04/13 04:18:16;;;;;;;1.95;1.85;;;;;;;;;;5678718;25;20651;-50
2024/04/13 04:20:45;;;;;;;1.98;1.88;;;;;;;;;;5678093;25;20254;-53
2024/04/13 04:23:14;;;;;;;2.03;1.90;;;;;;;;;;5677989;25;20611;-50
2024/04/13 04:25:40;;;;;;;5.53;2.35;;;;;;;;;;5678215;25;20703;-53
2024/04/13 04:28:11;;;;;;;2.30;2.10;;;;;;;;;;5678599;25;20328;-50
2024/04/13 04:30:38;;;;;;;1.80;1.70;;;;;;;;;;5678261;25;20216;-55
2024/04/13 04:33:11;;;;;;;4.30;2.28;;;;;;;;;;5677320;25;20228;-52
2024/04/13 04:35:37;;;;;;;2.03;1.80;;;;;;;;;;5678360;25;20219;-51
2024/04/13 04:38:07;;;;;;;1.83;1.63;;;;;;;;;;5671534;25;20239;-55
2024/04/13 04:40:34;;;;;;;2.65;2.45;;;;;;;;;;5663333;25;20979;-50
2024/04/13 04:43:03;;;;;;;2.00;1.90;;;;;;;;;;5644381;25;20228;-53
2024/04/13 04:45:31;;;;;;;2.28;2.15;;;;;;;;;;5678093;25;20216;-51
2024/04/13 04:48:00;;;;;;;2.42;2.22;;;;;;;;;;5662305;25;20217;-50
2024/04/13 04:50:30;;;;;;;2.65;2.10;;;;;;;;;;5678151;25;20610;-52
2024/04/13 04:53:00;;;;;;;2.00;1.90;;;;;;;;;;5677317;25;20227;-52
2024/04/13 04:55:28;;;;;;;2.53;1.75;;;;;;;;;;5677742;25;20672;-52
2024/04/13 04:57:57;;;;;;;1.83;1.70;;;;;;;;;;5677404;25;20211;-53
2024/04/13 05:00:23;;;;;;;5.53;2.97;;;;;;;;;;5677824;25;20220;-51
2024/04/13 05:02:52;;;;;;;4.88;3.50;;;;;;;;;;5677101;25;20296;-51
2024/04/13 05:05:19;;;;;;;2.60;2.40;;;;;;;;;;5677703;25;20266;-53
2024/04/13 05:07:50;;;;;;;4.90;2.60;;;;;;;;;;5677447;25;20291;-51
2024/04/13 05:10:17;;;;;;;2.28;2.10;;;;;;;;;;5662638;25;20274;-54
2024/04/13 05:12:46;;;;;;;2.60;2.40;;;;;;;;;;5671225;25;20232;-52
2024/04/13 05:15:12;;;;;;;2.33;1.90;;;;;;;;;;5677373;25;20215;-51
2024/04/13 05:17:41;;;;;;;2.78;2.58;;;;;;;;;;5677551;25;20873;-50
2024/04/13 05:20:09;;;;;;;2.17;2.00;;;;;;;;;;5677483;25;20219;-52
2024/04/13 05:22:38;;;;;;;2.83;2.53;;;;;;;;;;5677300;25;20334;-51
2024/04/13 05:25:08;;;;;;;2.45;1.80;;;;;;;;;;5675471;25;20254;-54
2024/04/13 05:27:38;;;;;;;1.95;1.85;;;;;;;;;;5677551;25;20224;-54
2024/04/13 05:30:06;;;;;;;2.20;2.00;;;;;;;;;;5677212;25;20263;-54
2024/04/13 05:32:36;;;;;;;3.15;2.20;;;;;;;;;;5677055;25;20220;-53
2024/04/13 05:35:03;;;;;;;3.00;2.80;;;;;;;;;;5676881;25;20274;-54
2024/04/13 05:37:32;;;;;;;2.03;1.80;;;;;;;;;;5677120;25;20220;-51
2024/04/13 05:39:58;;;;;;;2.20;2.10;;;;;;;;;;5667021;25;20270;-52
2024/04/13 05:42:30;;;;;;;1.80;1.70;;;;;;;;;;5668956;25;20236;-50
2024/04/13 05:44:58;;;;;;;1.77;1.40;;;;;;;;;;5676584;25;20220;-50
2024/04/13 05:47:27;;;;;;;2.25;2.05;;;;;;;;;;5677256;25;20224;-52
2024/04/13 05:49:53;;;;;;;2.60;2.40;;;;;;;;;;5677210;25;20220;-52
2024/04/13 05:52:22;;;;;;;2.17;1.98;;;;;;;;;;5676902;25;20239;-53
2024/04/13 05:54:49;;;;;;;2.80;2.53;;;;;;;;;;5661575;25;20224;-53
2024/04/13 05:57:18;;;;;;;2.38;1.90;;;;;;;;;;5676903;25;20326;-51
2024/04/13 05:59:47;;;;;;;2.38;2.22;;;;;;;;;;5676731;25;20220;-50
2024/04/13 06:02:16;;;;;;;1.60;1.50;;;;;;;;;;5676751;25;20315;-53
2024/04/13 06:04:43;;;;;;;1.90;1.80;;;;;;;;;;5676595;25;20224;-52
2024/04/13 06:07:12;;;;;;;2.10;2.00;;;;;;;;;;5661625;25;20660;-53
2024/04/13 06:09:38;;;;;;;2.40;2.22;;;;;;;;;;5651643;25;20267;-52
2024/04/13 06:12:08;;;;;;;2.33;2.13;;;;;;;;;;5675484;25;20278;-53
2024/04/13 06:14:35;;;;;;;3.10;2.80;;;;;;;;;;5662678;25;20224;-52
2024/04/13 06:17:07;;;;;;;3.83;3.15;;;;;;;;;;5675331;25;20298;-51
2024/04/13 06:19:34;;;;;;;2.90;2.60;;;;;;;;;;5676757;25;20223;-53
2024/04/13 06:22:03;;;;;;;3.60;3.30;;;;;;;;;;5676168;25;20576;-53
2024/04/13 06:24:29;;;;;;;3.58;3.30;;;;;;;;;;5676280;25;20220;-53
2024/04/13 06:26:59;;;;;;;3.45;2.92;;;;;;;;;;5676470;25;20291;-52
2024/04/13 06:29:25;;;;;;;2.90;2.70;;;;;;;;;;5676522;25;20741;-51
2024/04/13 06:31:54;;;;;;;2.92;2.72;;;;;;;;;;5675359;25;20227;-53
2024/04/13 06:34:23;;;;;;;2.60;2.40;;;;;;;;;;5676205;25;20274;-52
2024/04/13 06:36:52;;;;;;;3.05;2.75;;;;;;;;;;5675838;25;20287;-55
2024/04/13 06:39:19;;;;;;;2.60;2.40;;;;;;;;;;5666278;25;20274;-54
2024/04/13 06:41:48;;;;;;;3.75;3.42;;;;;;;;;;5667930;25;20274;-51
2024/04/13 06:44:14;;;;;;;2.95;2.75;;;;;;;;;;5676185;25;20219;-53
2024/04/13 06:46:43;;;;;;;3.40;3.10;;;;;;;;;;5676287;25;20276;-55
2024/04/13 06:49:10;;;;;;;3.05;2.85;;;;;;;;;;5654507;25;20742;-56
2024/04/13 06:51:42;;;;;;;3.25;2.38;;;;;;;;;;5668109;25;20287;-52
2024/04/13 06:54:08;;;;;;;2.22;2.03;;;;;;;;;;5676014;25;20742;-51
2024/04/13 06:56:37;;;;;;;1.98;1.88;;;;;;;;;;5676211;25;20774;-51
2024/04/13 06:59:04;;;;;;;2.42;2.22;;;;;;;;;;5676237;25;20216;-50
2024/04/13 07:01:33;;;;;;;4.13;3.45;;;;;;;;;;5660824;25;20263;-51
2024/04/13 07:04:00;;;;;;;3.25;2.45;;;;;;;;;;5675836;25;20224;-50
2024/04/13 07:06:31;;;;;;;4.10;2.97;;;;;;;;;;5676140;25;20254;-52
2024/04/13 07:09:00;;;;;;;3.13;2.83;;;;;;;;;;5665610;25;20636;-50
2024/04/13 07:11:31;;;;;;;2.22;2.03;;;;;;;;;;5667352;25;20307;-54
2024/04/13 07:13:57;;;;;;;2.28;2.03;;;;;;;;;;5656031;25;20221;-49
2024/04/13 07:16:26;;;;;;;1.50;1.40;;;;;;;;;;5664319;25;20559;-51
2024/04/13 07:18:53;;;;;;;5.63;2.70;;;;;;;;;;5675591;25;20729;-49
2024/04/13 07:21:22;;;;;;;3.30;2.63;;;;;;;;;;5659617;25;20231;-50
2024/04/13 07:23:49;;;;;;;2.92;1.92;;;;;;;;;;5660110;25;20225;-52
2024/04/13 07:26:20;;;;;;;2.70;2.50;;;;;;;;;;5675908;25;20224;-50
2024/04/13 07:28:47;;;;;;;2.08;1.90;;;;;;;;;;5675494;25;20220;-51
2024/04/13 07:31:16;;;;;;;3.95;2.72;;;;;;;;;;5675675;25;20228;-53
2024/04/13 07:33:42;;;;;;;3.35;1.80;;;;;;;;;;5675377;25;20220;-52
2024/04/13 07:36:12;;;;;;;2.55;2.35;;;;;;;;;;5660168;25;20267;-53
2024/04/13 07:38:38;;;;;;;2.15;1.95;;;;;;;;;;5666116;25;20271;-52
2024/04/13 07:41:07;;;;;;;1.88;1.77;;;;;;;;;;5674437;25;20809;-49
2024/04/13 07:43:36;;;;;;;1.95;1.85;;;;;;;;;;5675314;25;20216;-51
2024/04/13 07:46:06;;;;;;;2.33;1.73;;;;;;;;;;5660375;25;20287;-55
2024/04/13 07:48:32;;;;;;;2.75;1.67;;;;;;;;;;5674985;25;20224;-52
2024/04/13 07:51:03;;;;;;;1.88;1.70;;;;;;;;;;5678588;25;21038;-51
2024/04/13 07:53:30;;;;;;;2.47;1.77;;;;;;;;;;5678773;25;20334;-52
2024/04/13 07:55:59;;;;;;;2.15;1.95;;;;;;;;;;5678936;25;20216;-52
2024/04/13 07:58:26;;;;;;;2.47;2.28;;;;;;;;;;5679002;25;20266;-50
2024/04/13 08:00:58;;;;;;;2.38;2.08;;;;;;;;;;5678770;25;20223;-50
2024/04/13 08:03:24;;;;;;;2.15;1.95;;;;;;;;;;5678504;25;20223;-49
2024/04/13 08:05:53;;;;;;;2.20;2.00;;;;;;;;;;5678678;25;20219;-51
2024/04/13 08:08:20;;;;;;;2.67;2.25;;;;;;;;;;5658209;25;20262;-54
2024/04/13 08:10:49;;;;;;;2.50;2.22;;;;;;;;;;5664834;25;20241;-54
2024/04/13 08:13:15;;;;;;;2.38;2.17;;;;;;;;;;5654550;25;20337;-51
2024/04/13 08:15:45;;;;;;;4.25;2.60;;;;;;;;;;5657154;25;20262;-51
2024/04/13 08:18:15;;;;;;;1.65;1.55;;;;;;;;;;5663552;25;20220;-53
2024/04/13 08:20:45;;;;;;;2.20;2.08;;;;;;;;;;5678708;25;20219;-53
2024/04/13 08:23:12;;;;;;;1.98;1.88;;;;;;;;;;5648892;25;20228;-52
2024/04/13 08:25:41;;;;;;;2.42;2.22;;;;;;;;;;5663634;25;20220;-50
2024/04/13 08:28:07;;;;;;;2.60;2.40;;;;;;;;;;5662479;25;20726;-51
2024/04/13 08:30:41;;;;;;;1.92;1.77;;;;;;;;;;5678313;25;20228;-53
2024/04/13 08:33:07;;;;;;;3.30;2.15;;;;;;;;;;5676989;25;20232;-53
2024/04/13 08:35:41;;;;;;;2.33;1.88;;;;;;;;;;5678254;25;20698;-53
2024/04/13 08:38:07;;;;;;;3.00;2.67;;;;;;;;;;5674993;25;20231;-50
2024/04/13 08:40:36;;;;;;;3.40;2.60;;;;;;;;;;5672557;25;20225;-51
2024/04/13 08:43:04;;;;;;;2.53;2.28;;;;;;;;;;5661731;25;20695;-52
2024/04/13 08:45:34;;;;;;;2.28;2.10;;;;;;;;;;5678400;25;20223;-52
2024/04/13 08:48:01;;;;;;;1.95;1.80;;;;;;;;;;5674596;25;20266;-53
2024/04/13 08:50:31;;;;;;;2.10;2.00;;;;;;;;;;5667898;25;20263;-54
2024/04/13 08:53:00;;;;;;;3.25;2.83;;;;;;;;;;5677957;25;20224;-55
2024/04/13 08:55:32;;;;;;;2.97;2.78;;;;;;;;;;5678083;25;20220;-50
2024/04/13 08:57:59;;;;;;;2.75;2.10;;;;;;;;;;5663305;25;20746;-53
2024/04/13 09:00:28;;;;;;;2.85;2.35;;;;;;;;;;5678166;25;20291;-54
2024/04/13 09:02:56;;;;;;;4.38;4.05;;;;;;;;;;5661517;25;20229;-50
2024/04/13 09:05:28;;;;;;;3.10;2.90;;;;;;;;;;5668472;25;20275;-51
2024/04/13 09:07:56;;;;;;;2.50;2.30;;;;;;;;;;5673130;25;20220;-54
2024/04/13 09:10:29;;;;;;;3.53;3.22;;;;;;;;;;5664270;25;20232;-55
2024/04/13 09:12:56;;;;;;;3.38;2.58;;;;;;;;;;5673201;25;20224;-51
2024/04/13 09:15:25;;;;;;;2.90;1.83;;;;;;;;;;5676067;25;20252;-55
2024/04/13 09:17:55;;;;;;;2.60;2.40;;;;;;;;;;5677729;25;20219;-53
2024/04/13 09:20:25;;;;;;;2.75;1.80;;;;;;;;;;5677699;25;20232;-54
2024/04/13 09:22:52;;;;;;;2.25;1.90;;;;;;;;;;5677293;25;20227;-50
2024/04/13 09:25:27;;;;;;;2.65;2.42;;;;;;;;;;5676174;25;20785;-53
2024/04/13 09:28:01;;;;;;;3.47;3.17;;;;;;;;;;5659963;25;20219;-54
2024/04/13 09:30:31;;;;;;;2.47;2.08;;;;;;;;;;5677584;25;20238;-51
2024/04/13 09:33:03;;;;;;;3.40;2.60;;;;;;;;;;5673014;25;20228;-52
2024/04/13 09:35:32;;;;;;;3.63;2.70;;;;;;;;;;5651187;25;20315;-50
2024/04/13 09:38:01;;;;;;;5.60;3.58;;;;;;;;;;5675688;25;20220;-55
2024/04/13 09:40:34;;;;;;;5.20;2.80;;;;;;;;;;5672164;25;20609;-53
2024/04/13 09:43:01;;;;;;;2.33;2.00;;;;;;;;;;5675410;25;20699;-53
2024/04/13 09:45:30;;;;;;;2.17;2.00;;;;;;;;;;5677372;25;20224;-51
2024/04/13 09:47:59;;;;;;;1.95;1.85;;;;;;;;;;5677532;25;20224;-53
2024/04/13 09:50:29;;;;;;;2.03;1.90;;;;;;;;;;5662801;25;20221;-56
2024/04/13 09:52:58;;;;;;;1.92;1.50;;;;;;;;;;5677096;25;20814;-54
2024/04/13 09:55:27;;;;;;;2.38;2.17;;;;;;;;;;5677114;25;20262;-56
2024/04/13 09:57:57;;;;;;;2.47;2.08;;;;;;;;;;5648185;25;20271;-54
2024/04/13 10:00:26;;;;;;;3.85;2.55;;;;;;;;;;5677039;25;20246;-55
2024/04/13 10:02:53;;;;;;;2.25;2.05;;;;;;;;;;5676477;25;20617;-56
2024/04/13 10:05:22;;;;;;;1.92;1.80;;;;;;;;;;5676977;25;20223;-52
2024/04/13 10:07:50;;;;;;;2.45;2.22;;;;;;;;;;5677195;25;20219;-55
2024/04/13 10:10:20;;;;;;;2.20;2.00;;;;;;;;;;5674558;25;20224;-57
2024/04/13 10:12:47;;;;;;;3.55;3.20;;;;;;;;;;5670414;25;20754;-53
2024/04/13 10:15:20;;;;;;;3.10;2.58;;;;;;;;;;5662756;25;20216;-54
2024/04/13 10:17:47;;;;;;;2.17;1.85;;;;;;;;;;5676829;25;20765;-51
2024/04/13 10:20:17;;;;;;;2.60;2.38;;;;;;;;;;5676750;25;20220;-51
2024/04/13 10:22:53;;;;;;;2.50;2.33;;;;;;;;;;5676523;25;20378;-51
2024/04/13 10:25:29;;;;;;;2.78;2.10;;;;;;;;;;5676708;25;20833;-52
2024/04/13 10:28:06;;;;;;;2.60;2.30;;;;;;;;;;5676844;25;20227;-52
2024/04/13 10:30:49;;;;;;;3.13;2.88;;;;;;;;;;5676648;25;20266;-53
2024/04/13 10:33:23;;;;;;;3.08;2.33;;;;;;;;;;5662621;25;20220;-51
2024/04/13 10:36:00;;;;;;;3.15;2.85;;;;;;;;;;5661874;25;20346;-53
2024/04/13 10:38:29;;;;;;;2.95;2.58;;;;;;;;;;5667510;25;20277;-53
2024/04/13 10:40:58;;;;;;;2.55;2.35;;;;;;;;;;5662222;25;20285;-54
2024/04/13 10:43:25;;;;;;;5.35;1.73;;;;;;;;;;5665318;25;20571;-52
2024/04/13 10:45:59;;;;;;;1.80;1.70;;;;;;;;;;5671877;25;20255;-52
2024/04/13 10:48:28;;;;;;;1.45;1.33;;;;;;;;;;5676333;25;20254;-53
2024/04/13 10:50:59;;;;;;;1.60;1.50;;;;;;;;;;5675964;25;20224;-52
2024/04/13 10:53:27;;;;;;;1.73;1.63;;;;;;;;;;5666717;25;20255;-53
2024/04/13 10:55:58;;;;;;;1.65;1.48;;;;;;;;;;5657992;25;20221;-53
2024/04/13 10:58:28;;;;;;;1.67;1.58;;;;;;;;;;5676168;25;20216;-53
2024/04/13 11:01:00;;;;;;;2.28;1.63;;;;;;;;;;5670691;25;20227;-52
2024/04/13 11:03:27;;;;;;;3.55;2.20;;;;;;;;;;5655055;25;20224;-54
2024/04/13 11:05:57;;;;;;;1.98;1.83;;;;;;;;;;5670582;25;20502;-54
2024/04/13 11:08:24;;;;;;;2.47;1.80;;;;;;;;;;5675263;25;20255;-52
2024/04/13 11:10:55;;;;;;;2.10;1.40;;;;;;;;;;5669360;25;20231;-55
2024/04/13 11:13:23;;;;;;;1.40;1.30;;;;;;;;;;5676053;25;20216;-52
2024/04/13 11:15:52;;;;;;;1.90;1.80;;;;;;;;;;5675907;25;20228;-52
2024/04/13 11:18:22;;;;;;;2.15;1.33;;;;;;;;;;5663049;25;20228;-50
2024/04/13 11:20:57;;;;;;;4.45;1.70;;;;;;;;;;5676150;25;20224;-52
2024/04/13 11:23:24;;;;;;;2.22;1.67;;;;;;;;;;5674095;25;20347;-54
2024/04/13 11:25:53;;;;;;;1.73;1.40;;;;;;;;;;5661583;25;20270;-51
2024/04/13 11:28:20;;;;;;;2.40;1.65;;;;;;;;;;5659936;25;20219;-55
2024/04/13 11:30:49;;;;;;;1.70;1.33;;;;;;;;;;5659432;25;20225;-50
2024/04/13 11:33:16;;;;;;;3.13;1.65;;;;;;;;;;5661339;25;20277;-53
2024/04/13 11:35:58;;;;;;;1.98;1.48;;;;;;;;;;5675420;25;20231;-51
2024/04/13 11:38:28;;;;;;;1.77;1.63;;;;;;;;;;5658366;25;20355;-55
2024/04/13 11:40:58;;;;;;;1.30;1.25;;;;;;;;;;5661167;25;20296;-51
2024/04/13 11:43:24;;;;;;;1.95;1.80;;;;;;;;;;5675286;25;20270;-52
2024/04/13 11:45:54;;;;;;;1.70;1.60;;;;;;;;;;5675091;25;20271;-55
2024/04/13 11:48:20;;;;;;;4.88;1.75;;;;;;;;;;5675071;25;20737;-54
2024/04/13 11:50:52;;;;;;;3.38;1.85;;;;;;;;;;5675390;25;20224;-49
2024/04/13 11:53:19;;;;;;;4.85;2.85;;;;;;;;;;5647873;25;20216;-53
2024/04/13 11:55:52;;;;;;;1.58;1.48;;;;;;;;;;5675122;25;20584;-50
2024/04/13 11:58:21;;;;;;;5.63;2.72;;;;;;;;;;5675019;25;20339;-51
2024/04/13 12:00:50;;;;;;;1.67;1.35;;;;;;;;;;5672829;25;20271;-54
2024/04/13 12:03:17;;;;;;;1.65;1.52;;;;;;;;;;5661182;25;20271;-49
2024/04/13 12:05:47;;;;;;;2.15;1.90;;;;;;;;;;5660752;25;20759;-51
2024/04/13 12:08:17;;;;;;;2.20;1.98;;;;;;;;;;5667877;25;20564;-50
2024/04/13 12:10:47;;;;;;;2.80;2.00;;;;;;;;;;5659470;25;20248;-54
2024/04/13 12:13:14;;;;;;;3.10;2.05;;;;;;;;;;5674477;25;20330;-50
2024/04/13 12:15:43;;;;;;;2.05;1.60;;;;;;;;;;5674881;25;20322;-53
2024/04/13 12:18:09;;;;;;;3.05;2.40;;;;;;;;;;5673436;25;20266;-52
2024/04/13 12:20:38;;;;;;;2.42;1.77;;;;;;;;;;5674952;25;20227;-49
2024/04/13 12:23:05;;;;;;;2.35;1.85;;;;;;;;;;5670477;25;20220;-55
2024/04/13 12:25:38;;;;;;;2.00;1.77;;;;;;;;;;5664763;25;20267;-49
2024/04/13 12:28:07;;;;;;;4.90;1.80;;;;;;;;;;5674325;25;20254;-52
2024/04/13 12:30:37;;;;;;;2.40;2.20;;;;;;;;;;5660853;25;20220;-54
2024/04/13 12:33:04;;;;;;;2.10;1.60;;;;;;;;;;5673945;25;20224;-53
2024/04/13 12:35:33;;;;;;;3.05;1.40;;;;;;;;;;5650200;25;20244;-54
2024/04/13 12:38:00;;;;;;;3.25;1.85;;;;;;;;;;5676083;25;20216;-49
2024/04/13 12:40:29;;;;;;;2.42;1.70;;;;;;;;;;5663474;25;20246;-52
2024/04/13 12:42:58;;;;;;;2.25;1.80;;;;;;;;;;5659451;25;20275;-54
2024/04/13 12:45:27;;;;;;;2.58;1.75;;;;;;;;;;5666629;25;20368;-54
2024/04/13 12:47:54;;;;;;;2.35;1.70;;;;;;;;;;5678141;25;20224;-52
2024/04/13 12:50:23;;;;;;;2.75;1.90;;;;;;;;;;5664241;25;20265;-53
2024/04/13 12:52:49;;;;;;;4.05;2.10;;;;;;;;;;5676519;25;20224;-54
2024/04/13 12:55:18;;;;;;;1.52;1.42;;;;;;;;;;5663952;25;20232;-51
2024/04/13 12:57:46;;;;;;;3.03;1.65;;;;;;;;;;5678140;25;20710;-55
2024/04/13 13:00:19;;;;;;;1.98;1.88;;;;;;;;;;5661944;25;20608;-52
2024/04/13 13:02:46;;;;;;;2.00;1.42;;;;;;;;;;5664044;25;20220;-52
2024/04/13 13:05:15;;;;;;;2.00;1.60;;;;;;;;;;5675557;25;20251;-53
2024/04/13 13:07:42;;;;;;;1.60;1.50;;;;;;;;;;5678066;25;20323;-55
2024/04/13 13:10:11;;;;;;;1.27;1.25;;;;;;;;;;5676904;25;20722;-54
2024/04/13 13:12:38;;;;;;;1.50;1.40;;;;;;;;;;5669495;25;20600;-52
2024/04/13 13:15:08;;;;;;;1.50;1.40;;;;;;;;;;5663886;25;20219;-53
2024/04/13 13:17:37;;;;;;;2.90;1.40;;;;;;;;;;5678040;25;20224;-55
2024/04/13 13:20:08;;;;;;;2.85;2.05;;;;;;;;;;5661414;25;20232;-50
2024/04/13 13:22:34;;;;;;;1.83;1.70;;;;;;;;;;5677800;25;20661;-51
2024/04/13 13:25:04;;;;;;;1.50;1.40;;;;;;;;;;5661309;25;20258;-54
2024/04/13 13:27:30;;;;;;;1.80;1.70;;;;;;;;;;5675401;25;20266;-54
2024/04/13 13:29:59;;;;;;;2.67;2.00;;;;;;;;;;5675176;25;20232;-49
2024/04/13 13:32:26;;;;;;;4.40;2.10;;;;;;;;;;5677267;25;20282;-52
2024/04/13 13:34:57;;;;;;;1.50;1.40;;;;;;;;;;5677323;25;20315;-53
2024/04/13 13:37:24;;;;;;;3.78;2.15;;;;;;;;;;5665453;25;20220;-53
2024/04/13 13:39:53;;;;;;;1.65;1.50;;;;;;;;;;5666364;25;20295;-52
2024/04/13 13:42:20;;;;;;;3.15;1.80;;;;;;;;;;5664126;25;20231;-52
2024/04/13 13:44:49;;;;;;;1.30;1.17;;;;;;;;;;5661187;25;20219;-52
2024/04/13 13:47:15;;;;;;;2.22;2.00;;;;;;;;;;5669962;25;20290;-50
2024/04/13 13:49:44;;;;;;;1.95;1.67;;;;;;;;;;5670126;25;20228;-52
2024/04/13 13:52:14;;;;;;;1.45;1.35;;;;;;;;;;5677144;25;20278;-54
2024/04/13 13:54:43;;;;;;;1.70;1.60;;;;;;;;;;5677486;25;20216;-54
2024/04/13 13:57:11;;;;;;;4.38;3.13;;;;;;;;;;5677118;25;20258;-53
2024/04/13 13:59:40;;;;;;;6.82;6.22;;;;;;;;;;5677482;25;20600;-53
2024/04/13 14:02:07;;;;;;;6.18;5.57;;;;;;;;;;5674451;25;20266;-54
2024/04/13 14:04:36;;;;;;;9.95;8.10;;;;;;;;;;5676837;25;20317;-52
2024/04/13 14:07:03;;;;;;;5.45;4.95;;;;;;;;;;5676930;25;20255;-55
2024/04/13 14:09:35;;;;;;;6.20;5.60;;;;;;;;;;5663390;25;20283;-53
2024/04/13 14:12:01;;;;;;;5.30;4.03;;;;;;;;;;5673486;25;20236;-50
2024/04/13 14:14:30;;;;;;;3.42;2.60;;;;;;;;;;5676884;25;20725;-51
2024/04/13 14:16:59;;;;;;;2.47;2.17;;;;;;;;;;5676793;25;20572;-50
2024/04/13 14:19:28;;;;;;;2.72;1.88;;;;;;;;;;5677126;25;20219;-52
2024/04/13 14:21:54;;;;;;;3.22;1.63;;;;;;;;;;5676772;25;20227;-51
2024/04/13 14:24:24;;;;;;;2.53;2.03;;;;;;;;;;5676593;25;20227;-49
2024/04/13 14:26:53;;;;;;;1.52;1.40;;;;;;;;;;5674634;25;21110;-52
2024/04/13 14:29:23;;;;;;;1.83;1.55;;;;;;;;;;5656793;25;20693;-51
2024/04/13 14:31:50;;;;;;;1.60;1.45;;;;;;;;;;5655195;25;20232;-52
2024/04/13 14:34:19;;;;;;;1.63;1.42;;;;;;;;;;5654442;25;20217;-52
2024/04/13 14:36:45;;;;;;;1.75;1.65;;;;;;;;;;5670314;25;20220;-52
2024/04/13 14:39:15;;;;;;;3.17;1.77;;;;;;;;;;5651764;25;20342;-50
2024/04/13 14:41:41;;;;;;;1.63;1.40;;;;;;;;;;5662918;25;20283;-54
2024/04/13 14:44:13;;;;;;;3.83;3.53;;;;;;;;;;5672498;25;20272;-50
2024/04/13 14:46:39;;;;;;;3.78;3.47;;;;;;;;;;5666024;25;20220;-53
2024/04/13 14:49:08;;;;;;;3.97;3.55;;;;;;;;;;5676242;25;20927;-54
2024/04/13 14:51:35;;;;;;;3.95;3.58;;;;;;;;;;5676260;25;20224;-51